createdAt,value
2023-05-17T00:04:48.708Z,100.00
2023-05-17T00:09:50.260Z,100.00
2023-05-17T00:14:53.452Z,100.00
2023-05-17T00:19:55.086Z,100.00
2023-05-17T00:24:56.822Z,100.00
2023-05-17T00:29:58.490Z,100.00
2023-05-17T00:35:00.274Z,100.00
2023-05-17T00:40:02.292Z,100.00
2023-05-17T00:45:04.300Z,100.00
2023-05-17T00:50:06.637Z,100.00
2023-05-17T00:55:08.647Z,100.00
2023-05-17T01:00:10.824Z,100.00
2023-05-17T01:05:12.388Z,100.00
2023-05-17T01:10:14.006Z,100.00
2023-05-17T01:15:38.743Z,100.00
2023-05-17T01:20:43.983Z,100.00
2023-05-17T01:26:10.778Z,100.00
2023-05-17T01:31:13.069Z,100.00
2023-05-17T01:36:14.614Z,100.00
2023-05-17T01:41:32.612Z,100.00
2023-05-17T01:46:39.360Z,100.00
2023-05-17T01:51:48.723Z,100.00
2023-05-17T01:56:57.489Z,100.00
2023-05-17T02:02:06.196Z,100.00
2023-05-17T02:07:07.783Z,100.00
2023-05-17T02:12:09.349Z,100.00
2023-05-17T02:17:10.934Z,100.00
2023-05-17T02:22:12.441Z,100.00
2023-05-17T02:27:14.189Z,100.00
2023-05-17T02:32:15.752Z,100.00
2023-05-17T02:37:17.265Z,100.00
2023-05-17T02:42:18.890Z,100.00
2023-05-17T02:47:23.698Z,100.00
2023-05-17T02:52:25.313Z,100.00
2023-05-17T02:57:26.904Z,100.00
2023-05-17T03:02:28.583Z,100.00
2023-05-17T03:07:30.263Z,100.00
2023-05-17T03:12:31.887Z,100.00
2023-05-17T03:17:33.551Z,100.00
2023-05-17T03:22:35.153Z,100.00
2023-05-17T03:27:36.915Z,100.00
2023-05-17T03:32:40.586Z,100.00
2023-05-17T03:37:42.471Z,100.00
2023-05-17T03:42:44.029Z,100.00
2023-05-17T03:47:45.567Z,100.00
2023-05-17T03:52:47.234Z,100.00
2023-05-17T03:57:48.803Z,100.00
2023-05-17T04:02:52.182Z,100.00
2023-05-17T04:07:54.476Z,100.00
2023-05-17T04:12:56.034Z,100.00
2023-05-17T04:17:57.752Z,100.00
2023-05-17T04:22:59.412Z,100.00
2023-05-17T04:28:01.032Z,100.00
2023-05-17T04:33:02.762Z,100.00
2023-05-17T04:38:04.486Z,100.00
2023-05-17T04:43:06.278Z,100.00
2023-05-17T04:48:08.440Z,100.00
2023-05-17T04:53:10.109Z,100.00
2023-05-17T04:58:11.923Z,100.00
2023-05-17T05:03:13.548Z,100.00
2023-05-17T05:08:15.202Z,100.00
2023-05-17T05:13:16.995Z,100.00
2023-05-17T05:18:18.604Z,100.00
2023-05-17T05:23:20.283Z,100.00
2023-05-17T05:28:21.900Z,100.00
2023-05-17T05:33:23.578Z,100.00
2023-05-17T05:38:25.202Z,100.00
2023-05-17T05:43:26.809Z,100.00
2023-05-17T05:48:28.412Z,100.00
2023-05-17T05:53:30.071Z,100.00
2023-05-17T05:58:31.961Z,97.47
2023-05-17T06:03:33.573Z,96.13
2023-05-17T06:08:35.144Z,93.71
2023-05-17T06:13:36.754Z,90.57
2023-05-17T06:18:38.483Z,87.84
2023-05-17T06:23:40.098Z,85.92
2023-05-17T06:28:44.045Z,85.77
2023-05-17T06:33:45.949Z,83.99
2023-05-17T06:38:47.548Z,83.33
2023-05-17T06:43:49.139Z,81.33
2023-05-17T06:48:51.475Z,80.03
2023-05-17T06:53:53.244Z,78.19
2023-05-17T06:58:54.821Z,76.50
2023-05-17T07:03:56.810Z,76.72
2023-05-17T07:08:58.407Z,76.19
2023-05-17T07:13:59.946Z,75.49
2023-05-17T07:19:01.570Z,74.38
2023-05-17T07:24:03.316Z,74.32
2023-05-17T07:29:05.019Z,72.77
2023-05-17T07:34:06.671Z,72.62
2023-05-17T07:39:09.201Z,71.91
2023-05-17T07:44:10.984Z,69.95
2023-05-17T07:49:12.660Z,69.85
2023-05-17T07:54:24.585Z,70.15
2023-05-17T07:59:26.340Z,69.79
2023-05-17T08:04:27.976Z,68.66
2023-05-17T08:09:30.474Z,68.73
2023-05-17T08:14:32.037Z,68.68
2023-05-17T08:19:33.918Z,69.15
2023-05-17T08:24:35.977Z,67.78
2023-05-17T08:29:40.320Z,66.90
2023-05-17T08:34:41.861Z,66.68
2023-05-17T08:39:43.394Z,66.02
2023-05-17T08:44:45.377Z,65.08
2023-05-17T08:49:48.260Z,64.66
2023-05-17T08:54:49.967Z,63.94
2023-05-17T08:59:53.436Z,63.02
2023-05-17T09:04:56.533Z,63.49
2023-05-17T09:09:58.505Z,64.10
2023-05-17T09:15:19.316Z,62.66
2023-05-17T09:20:24.991Z,61.61
2023-05-17T09:25:28.616Z,61.10
2023-05-17T09:30:33.156Z,60.89
2023-05-17T09:35:36.628Z,59.45
2023-05-17T09:40:39.991Z,59.84
2023-05-17T09:45:41.794Z,60.04
2023-05-17T09:50:48.580Z,57.92
2023-05-17T09:55:52.754Z,56.66
2023-05-17T10:01:05.406Z,56.50
2023-05-17T10:06:09.884Z,56.24
2023-05-17T10:11:13.289Z,51.74
2023-05-17T10:16:15.900Z,48.25
2023-05-17T10:21:18.622Z,50.64
2023-05-17T10:26:20.841Z,52.25
2023-05-17T10:31:24.017Z,51.79
2023-05-17T10:36:26.254Z,52.81
2023-05-17T10:41:32.241Z,53.54
2023-05-17T10:46:34.358Z,48.02
2023-05-17T10:51:37.866Z,48.48
2023-05-17T10:56:47.492Z,50.67
2023-05-17T11:01:54.897Z,52.62
2023-05-17T11:07:19.260Z,54.08
2023-05-17T11:12:40.372Z,53.63
2023-05-17T11:17:54.473Z,54.01
2023-05-17T11:23:00.114Z,54.97
2023-05-17T11:28:17.154Z,54.10
2023-05-17T11:33:33.067Z,53.88
2023-05-17T11:38:36.610Z,55.13
2023-05-17T11:43:38.706Z,54.12
2023-05-17T11:48:40.345Z,54.26
2023-05-17T11:53:44.335Z,53.26
2023-05-17T11:58:50.501Z,54.00
2023-05-17T12:04:01.188Z,53.32
2023-05-17T12:09:03.496Z,53.42
2023-05-17T12:14:05.514Z,55.33
2023-05-17T12:19:18.282Z,54.32
2023-05-17T12:24:19.959Z,54.30
2023-05-17T12:29:23.283Z,53.83
2023-05-17T12:34:24.863Z,53.97
2023-05-17T12:39:26.677Z,53.96
2023-05-17T12:44:28.239Z,54.19
2023-05-17T12:49:29.784Z,55.36
2023-05-17T12:54:31.448Z,55.83
2023-05-17T12:59:36.462Z,55.56
2023-05-17T13:04:38.811Z,55.89
2023-05-17T13:09:50.644Z,56.76
2023-05-17T13:14:53.597Z,57.67
2023-05-17T13:19:58.052Z,58.15
2023-05-17T13:24:59.962Z,58.80
2023-05-17T13:30:01.581Z,59.07
2023-05-17T13:35:03.368Z,60.11
2023-05-17T13:40:05.436Z,61.35
2023-05-17T13:45:09.270Z,62.28
2023-05-17T13:50:12.055Z,62.12
2023-05-17T13:55:13.677Z,61.23
2023-05-17T14:00:16.228Z,60.79
2023-05-17T14:05:18.080Z,60.88
2023-05-17T14:10:19.629Z,61.03
2023-05-17T14:15:21.979Z,61.75
2023-05-17T14:20:23.564Z,63.96
2023-05-17T14:25:25.412Z,62.27
2023-05-17T14:30:27.007Z,63.51
2023-05-17T14:35:30.303Z,61.77
2023-05-17T14:40:32.765Z,61.07
2023-05-17T14:45:34.542Z,60.23
2023-05-17T14:50:36.163Z,60.87
2023-05-17T14:55:37.973Z,60.10
2023-05-17T15:00:41.744Z,59.58
2023-05-17T15:05:43.505Z,61.25
2023-05-17T15:10:45.127Z,60.50
2023-05-17T15:15:46.910Z,59.51
2023-05-17T15:20:48.509Z,59.54
2023-05-17T15:25:50.142Z,59.94
2023-05-17T15:31:03.134Z,59.49
2023-05-17T15:36:07.159Z,60.16
2023-05-17T15:41:14.457Z,59.98
2023-05-17T15:46:16.867Z,60.38
2023-05-17T15:51:18.407Z,60.28
2023-05-17T15:56:21.368Z,60.02
2023-05-17T16:01:22.930Z,60.14
2023-05-17T16:06:24.540Z,60.15
2023-05-17T16:11:26.088Z,61.46
2023-05-17T16:16:27.704Z,60.28
2023-05-17T16:21:31.275Z,61.10
2023-05-17T16:26:35.956Z,61.66
2023-05-17T16:31:37.534Z,62.31
2023-05-17T16:36:39.123Z,62.86
2023-05-17T16:41:40.730Z,62.59
2023-05-17T16:46:42.341Z,63.45
2023-05-17T16:51:45.351Z,63.61
2023-05-17T16:56:46.931Z,64.36
2023-05-17T17:01:48.650Z,64.29
2023-05-17T17:06:51.437Z,65.09
2023-05-17T17:11:53.106Z,64.57
2023-05-17T17:16:55.229Z,65.18
2023-05-17T17:21:56.852Z,65.24
2023-05-17T17:26:58.475Z,65.74
2023-05-17T17:32:00.080Z,65.93
2023-05-17T17:37:01.747Z,66.24
2023-05-17T17:42:03.372Z,67.44
2023-05-17T17:47:05.009Z,66.49
2023-05-17T17:52:06.626Z,65.89
2023-05-17T17:57:08.249Z,65.65
2023-05-17T18:02:09.994Z,65.87
2023-05-17T18:07:14.084Z,66.14
2023-05-17T18:12:15.882Z,66.62
2023-05-17T18:17:17.380Z,67.52
2023-05-17T18:22:19.084Z,67.31
2023-05-17T18:27:20.648Z,66.92
2023-05-17T18:32:22.238Z,67.08
2023-05-17T18:37:23.804Z,67.37
2023-05-17T18:42:25.543Z,67.79
2023-05-17T18:47:27.962Z,67.87
2023-05-17T18:52:29.764Z,68.10
2023-05-17T18:57:31.486Z,68.58
2023-05-17T19:02:33.104Z,68.50
2023-05-17T19:07:34.739Z,68.44
2023-05-17T19:12:39.413Z,68.92
2023-05-17T19:17:41.076Z,69.05
2023-05-17T19:22:42.694Z,70.30
2023-05-17T19:27:44.447Z,70.30
2023-05-17T19:32:46.068Z,70.81
2023-05-17T19:37:47.852Z,70.69
2023-05-17T19:42:49.933Z,70.56
2023-05-17T19:47:53.489Z,70.78
2023-05-17T19:52:55.848Z,71.35
2023-05-17T19:57:57.778Z,72.09
2023-05-17T20:02:59.822Z,72.22
2023-05-17T20:08:02.714Z,73.01
2023-05-17T20:13:04.365Z,73.53
2023-05-17T20:18:06.134Z,73.19
2023-05-17T20:23:08.691Z,73.26
2023-05-17T20:28:10.297Z,73.33
2023-05-17T20:33:11.958Z,73.41
2023-05-17T20:38:13.636Z,73.82
2023-05-17T20:43:16.782Z,74.60
2023-05-17T20:48:19.676Z,75.00
2023-05-17T20:53:21.394Z,75.41
2023-05-17T20:58:23.104Z,76.24
2023-05-17T21:03:27.907Z,76.57
2023-05-17T21:08:29.859Z,77.05
2023-05-17T21:13:31.418Z,77.61
2023-05-17T21:18:33.201Z,78.11
2023-05-17T21:23:34.767Z,78.56
2023-05-17T21:28:36.303Z,78.98
2023-05-17T21:33:37.882Z,79.51
2023-05-17T21:38:39.418Z,79.76
2023-05-17T21:43:41.846Z,80.17
2023-05-17T21:48:43.497Z,80.33
2023-05-17T21:53:45.253Z,80.66
2023-05-17T21:58:46.842Z,80.79
2023-05-17T22:03:50.749Z,80.49
2023-05-17T22:08:52.569Z,81.48
2023-05-17T22:13:54.226Z,81.58
2023-05-17T22:18:55.798Z,81.95
2023-05-17T22:23:57.766Z,82.36
2023-05-17T22:28:59.407Z,82.59
2023-05-17T22:34:00.938Z,82.98
2023-05-17T22:39:02.550Z,83.17
2023-05-17T22:44:04.332Z,83.22
2023-05-17T22:49:06.248Z,84.31
2023-05-17T22:54:07.829Z,85.38
2023-05-17T22:59:09.402Z,85.80
2023-05-17T23:04:10.967Z,86.60
2023-05-17T23:09:13.241Z,86.92
2023-05-17T23:14:14.965Z,86.80
2023-05-17T23:19:20.835Z,87.02
2023-05-17T23:24:26.023Z,87.18
2023-05-17T23:29:27.605Z,86.59
2023-05-17T23:34:29.186Z,86.42
2023-05-17T23:39:30.930Z,85.95
2023-05-17T23:44:34.836Z,85.40
2023-05-17T23:49:37.204Z,84.49
2023-05-17T23:54:42.065Z,84.16
2023-05-17T23:59:43.613Z,83.17
